logo
App data

DEFCON VR

DEFCON VR allows you to spectate DEFCON games in the comfort of your own virtual War Room. Join others and marvel at total global annihilation as nuclear missiles arc over the globe on their path to destruction. Watch Armageddon unfold as everybody dies….
Store | Hub | SteamDB | Site
Developer: Introversion Software Publisher: Introversion Software
Genre: Indie, Strategy
Languages: English
Tags: Strategy (23), Indie (22), VR (8)
Category: Single-player, Multi-player, PvP, Online PvP
Release date: Feb 15, 2017
Free
Metascore: 84%
Owners: 0 .. 20,000
Followers: 317

Steam Spy is still in beta, so expect major bugs.

Owners data:

Access restricted.

This feature is only available to users with special access rights. Sorry.

If you want to proceed, you need to register or log in first and then back Steam Spy on Patreon. Look for Indie or Pro pledge.

Don't forget to use the same email as on Steam Spy!

If you've recently backed Steam Spy on Patreon, please note, that it might take around 15 minutes for your access rights to sync. In most cases you'll need to re-login on Steam Spy too.

Audience in 2 weeks:

Access restricted.

This feature is only available to users with special access rights. Sorry.

If you want to proceed, you need to register or log in first and then back Steam Spy on Patreon. Look for Indie or Pro pledge.

Don't forget to use the same email as on Steam Spy!

If you've recently backed Steam Spy on Patreon, please note, that it might take around 15 minutes for your access rights to sync. In most cases you'll need to re-login on Steam Spy too.

Peak daily concurrent players:

CCU data courtesy of SteamDB. Used with permission.

Hourly concurrent players:

Followers over time

Access restricted.

This feature is only available to users with special access rights. Sorry.

If you want to proceed, you need to register or log in first and then back Steam Spy on Patreon. Look for Indie or Pro pledge.

Don't forget to use the same email as on Steam Spy!

If you've recently backed Steam Spy on Patreon, please note, that it might take around 15 minutes for your access rights to sync. In most cases you'll need to re-login on Steam Spy too.

Views for top 50 videos on YouTube for this game:

Games similar to this one:

# Game Release date
Price
Score rank
(Userscore / Metascore)
Owners
Players
Playtime (Median)
1 Sam & Max 104: Abe Lincoln Must Die! Feb 22, 2007 N/AN/A (N/A)1,000,000 .. 2,000,0000%00:00 (00:00)
2 Starscape Mar 27, 2003 $7.99N/A (N/A)20,000 .. 50,0000%00:00 (00:00)
3 Bionic Commando Jul 28, 2009 $9.99N/A (N/A/69%)200,000 .. 500,0000%00:00 (00:00)
4 Scary Girl Apr 9, 2012 $6.99N/A (N/A)20,000 .. 50,0000%00:00 (00:00)
5 Space Ace Apr 29, 1984 $9.99N/A (N/A)0 .. 20,0000%00:00 (00:00)
6 Dragon's Lair 2: Time Warp Jun 16, 1991 $9.99N/A (N/A)0 .. 20,0000%00:00 (00:00)
7 Marc Eckō's Getting Up: Contents Under Pressure Feb 14, 2006 $14.99N/A (N/A/69%)100,000 .. 200,0000%00:00 (00:00)
8 Global Outbreak: Doomsday Edition Aug 11, 2014 N/AN/A (N/A)0 .. 20,0000%00:00 (00:00)
9 EPOCH Jun 5, 2014 $1.99N/A (N/A)20,000 .. 50,00033.33%00:44 (00:22)
10 Alone in the Dark: Illumination Jun 11, 2015 $19.99N/A (N/A)50,000 .. 100,0000%00:00 (00:00)
11 JUDGEMENT SILVERSWORD - Resurrection - Sep 18, 2015 $4.99N/A (N/A)0 .. 20,0000%00:00 (00:00)
12 US and THEM Mar 18, 2014 $2.99N/A (N/A)20,000 .. 50,0000%00:00 (00:00)
13 Avoid - Sensory Overload Apr 8, 2014 $4.99N/A (N/A)20,000 .. 50,0000%00:00 (00:00)
14 El Matador Sep 25, 2006 $3.99N/A (N/A/54%)50,000 .. 100,0000%00:00 (00:00)
15 Brigade E5: New Jagged Union Oct 17, 2006 $3.99N/A (N/A/41%)0 .. 20,0000%00:00 (00:00)
16 Zombies on a Plane Mar 25, 2016 $4.99N/A (N/A)50,000 .. 100,00012.5%01:59 (00:39)
17 Pure Chess Grandmaster Edition Sep 9, 2016 $15.99N/A (N/A)0 .. 20,0000%00:00 (00:00)
18 Disney Pirates of the Caribbean: At Worlds End Oct 6, 2014 $19.99N/A (N/A)20,000 .. 50,0000%00:00 (00:00)
19 Radiant Defense Jul 11, 2014 $4.99N/A (N/A)20,000 .. 50,0000%00:00 (00:00)
20 #KILLALLZOMBIES Aug 10, 2016 $9.99N/A (N/A)50,000 .. 100,0000%00:00 (00:00)
21 World War 2: Time of Wrath Jun 6, 2014 $0.99N/A (N/A)20,000 .. 50,0000%00:00 (00:00)
22 Super Dungeon Bros Nov 1, 2016 $19.99N/A (N/A)20,000 .. 50,0000%00:00 (00:00)
23 Gold Rush! Classic Dec 23, 1988 $2.99N/A (N/A)100,000 .. 200,0000%00:00 (00:00)
24 The Sun at Night Aug 1, 2014 $4.99N/A (N/A/59%)0 .. 20,0000%00:00 (00:00)
25 Disney Alice in Wonderland Mar 2, 2010 $19.99N/A (N/A/63%)20,000 .. 50,0000%00:00 (00:00)
26 Cubesis Aug 22, 2014 $0.49N/A (N/A)0 .. 20,0000%00:00 (00:00)
27 Disney Tangled Nov 19, 2010 $19.99N/A (N/A)0 .. 20,0000%00:00 (00:00)
28 The Body Changer Oct 15, 2015 $19.99N/A (N/A)0 .. 20,0000%00:00 (00:00)
29 Run or Die Dec 11, 2014 $0.99N/A (N/A)0 .. 20,0000%00:00 (00:00)
30 Seven Kingdoms 2 HD Feb 4, 2015 $9.99N/A (N/A)20,000 .. 50,0000%00:00 (00:00)
31 Harold Feb 12, 2015 $9.99N/A (N/A/70%)0 .. 20,0000%00:00 (00:00)
32 Moorhuhn Invasion (Crazy Chicken Invasion) Feb 20, 2015 N/AN/A (N/A)20,000 .. 50,0000%00:00 (00:00)
33 HitBox Jan 30, 2017 FreeN/A (N/A)20,000 .. 50,0000%00:00 (00:00)
34 Crystal Rift Mar 30, 2016 $9.99N/A (N/A)0 .. 20,0000%00:00 (00:00)
35 Garden Rescue Feb 2, 2015 $3.99N/A (N/A)100,000 .. 200,0000%00:00 (00:00)
36 UFHO2 Apr 1, 2014 FreeN/A (N/A)20,000 .. 50,0000%00:00 (00:00)
37 Fair Strike Feb 5, 2004 $3.99N/A (N/A/56%)20,000 .. 50,00033.33%01:38 (00:49)
38 Spirit of War Mar 12, 2015 $9.99N/A (N/A)20,000 .. 50,0000%00:00 (00:00)
39 Kaiju Panic Oct 9, 2015 $9.99N/A (N/A)0 .. 20,0000%00:00 (00:00)
40 We Are Legion Aug 7, 2015 $9.99N/A (N/A)0 .. 20,0000%00:00 (00:00)
41 Desert Law Apr 29, 2005 $2.99N/A (N/A)20,000 .. 50,0000%00:00 (00:00)
42 Cuban Missile Crisis: Ice Crusade Jul 29, 2005 $4.99N/A (N/A)20,000 .. 50,0000%00:00 (00:00)
43 Battle Fantasia -Revised Edition- Jul 7, 2015 $14.99N/A (N/A)50,000 .. 100,0000%00:00 (00:00)
44 Bio Menace Aug 3, 1993 N/AN/A (N/A)0 .. 20,0000%00:00 (00:00)
45 Paganitzu Oct 1, 1991 $4.99N/A (N/A)0 .. 20,0000%00:00 (00:00)
46 Monuments of Mars Jan 1, 1990 N/AN/A (N/A)20,000 .. 50,0000%00:00 (00:00)
47 Xenophage: Alien Bloodsport Dec 29, 1995 N/AN/A (N/A)20,000 .. 50,0000%00:00 (00:00)
48 NOBUNAGA'S AMBITION: Kakushin with Power Up Kit Jun 25, 2015 $54.99N/A (N/A)50,000 .. 100,0000%00:00 (00:00)
49 NOBUNAGA'S AMBITION: Tendou with Power Up Kit Jun 25, 2015 $54.99N/A (N/A)50,000 .. 100,0000%00:00 (00:00)
50 Space Robot Samurai Zombie Slayer May 21, 2015 $1.99N/A (N/A)0 .. 20,0000%00:00 (00:00)
51 TASTEE: Lethal Tactics May 10, 2016 N/AN/A (N/A)20,000 .. 50,0000%00:00 (00:00)
52 Disposable Heroes Oct 1, 2015 $1.99N/A (N/A)20,000 .. 50,0000%00:00 (00:00)
53 SHOCK TROOPERS May 18, 2016 $7.99N/A (N/A)20,000 .. 50,0000%00:00 (00:00)
54 TWINKLE STAR SPRITES May 26, 2016 $7.99N/A (N/A)20,000 .. 50,0000%00:00 (00:00)
55 Super Mutant Alien Assault Jul 11, 2016 $9.99N/A (N/A)20,000 .. 50,0000%00:00 (00:00)
56 Explosionade Sep 23, 2015 $3.99N/A (N/A)20,000 .. 50,0000%00:00 (00:00)
57 Infinium Strike Jul 14, 2016 $9.99N/A (N/A)0 .. 20,0000%00:00 (00:00)
58 World War II GI Mar 15, 1999 $6.99N/A (N/A)20,000 .. 50,0000%00:00 (00:00)
59 Chicken Invaders 3 Jun 8, 2015 $4.99N/A (N/A)0 .. 20,0000%00:00 (00:00)
60 ESCHATOS Sep 18, 2015 $14.99N/A (N/A)0 .. 20,0000%00:00 (00:00)
61 DELTAZEAL Oct 16, 2015 $11.99N/A (N/A)0 .. 20,0000%00:00 (00:00)
62 Bezier Mar 3, 2016 $9.99N/A (N/A)20,000 .. 50,0000%00:00 (00:00)
63 Princess Kaguya: Legend of the Moon Warrior Aug 4, 2015 $10.99N/A (N/A)0 .. 20,0000%00:00 (00:00)
64 Umihara Kawase Shun Nov 24, 2015 $11.99N/A (N/A)0 .. 20,0000%00:00 (00:00)
65 Russian Front Jul 23, 2015 $14.99N/A (N/A)20,000 .. 50,0000%00:00 (00:00)
66 Caladrius Blaze Jan 11, 2017 $19.99N/A (N/A)20,000 .. 50,0000%00:00 (00:00)
67 Azure Striker Gunvolt Aug 28, 2015 $14.99N/A (N/A)50,000 .. 100,0000%00:00 (00:00)
68 Mekazoo Nov 14, 2016 $9.99N/A (N/A/80%)0 .. 20,0000%00:00 (00:00)
69 Anarcute Jul 12, 2016 $14.99N/A (N/A/79%)20,000 .. 50,0000%00:00 (00:00)
70 Sir! I'd Like To Report A Bug! Oct 19, 2015 $1.99N/A (N/A)0 .. 20,00033.33%00:33 (00:16)
71 Space Food Truck Mar 25, 2016 $9.99N/A (N/A)20,000 .. 50,0000%00:00 (00:00)
72 MacGuffin Feb 18, 2016 $2.99N/A (N/A)0 .. 20,0000%00:00 (00:00)
73 Porradaria Upgrade Oct 2, 2013 N/AN/A (N/A)20,000 .. 50,0000%00:00 (00:00)
74 Normality Jun 30, 1996 $2.99N/A (N/A)200,000 .. 500,0000%00:00 (00:00)
75 Wuppo: Definitive Edition Sep 29, 2016 $14.99N/A (N/A/78%)100,000 .. 200,0000%00:00 (00:00)
76 Age of Barbarian Extended Cut May 20, 2016 $12.99N/A (N/A)0 .. 20,0000%00:00 (00:00)
77 ARCADE GAME SERIES: Ms. PAC-MAN Apr 19, 2016 $3.99N/A (N/A)20,000 .. 50,0000%00:00 (00:00)
78 Death by Game Show Jan 22, 2016 $1.99N/A (N/A)0 .. 20,0000%00:00 (00:00)
79 Acorn Assault: Rodent Revolution Mar 2, 2016 N/AN/A (N/A)0 .. 20,0000%00:00 (00:00)
80 Cluck Yegger in Escape From The Planet of The Poultroid Nov 9, 2015 $2.99N/A (N/A)0 .. 20,0000%00:00 (00:00)
81 Gurgamoth Feb 16, 2016 $9.99N/A (N/A)0 .. 20,0000%00:00 (00:00)
82 Red Game Without A Great Name Dec 9, 2015 N/AN/A (N/A/55%)20,000 .. 50,0000%00:00 (00:00)
83 Megamagic: Wizards of the Neon Age Apr 20, 2016 $9.99N/A (N/A/67%)20,000 .. 50,0000%00:00 (00:00)
84 The Next World Mar 7, 2016 $12.99N/A (N/A)20,000 .. 50,0000%00:00 (00:00)
85 Felt Tip Circus Apr 5, 2016 $7.99N/A (N/A)0 .. 20,0000%00:00 (00:00)
86 ABO MANDO Dec 31, 2015 $0.99N/A (N/A)50,000 .. 100,0000%00:00 (00:00)
87 Phoning Home Feb 7, 2017 FreeN/A (N/A/61%)100,000 .. 200,0000%00:00 (00:00)
88 And So It Was Feb 29, 2016 N/AN/A (N/A)0 .. 20,0000%00:00 (00:00)
89 Rush for gold: Alaska Jan 14, 2016 $3.99N/A (N/A)20,000 .. 50,0000%00:00 (00:00)
90 NotCoD May 19, 2016 N/AN/A (N/A)0 .. 20,0000%00:00 (00:00)
91 Auralux: Constellations Jun 1, 2016 $9.99N/A (N/A)20,000 .. 50,0000%00:00 (00:00)
92 Onechanbara Z2: Chaos Jun 2, 2016 $39.99N/A (N/A)20,000 .. 50,0000%00:00 (00:00)
93 Highland Warriors Jan 20, 2003 $7.99N/A (N/A/58%)0 .. 20,0000%00:00 (00:00)
94 Planar Conquest May 30, 2016 $1.99N/A (N/A/53%)50,000 .. 100,0000%00:00 (00:00)
95 Madness Cubed May 12, 2016 $1.99N/A (N/A)100,000 .. 200,0000%00:00 (00:00)
96 Warhammer 40,000: Armageddon - Da Orks Aug 18, 2016 $19.99N/A (N/A)0 .. 20,0000%00:00 (00:00)
97 Defend Your Crypt Jul 21, 2016 $2.99N/A (N/A)20,000 .. 50,0000%00:00 (00:00)
98 Grizzly Valley Apr 23, 2016 $4.99N/A (N/A)100,000 .. 200,0000%00:00 (00:00)
99 Plancon: Space Conflict Aug 8, 2016 $6.99N/A (N/A)20,000 .. 50,0000%00:00 (00:00)
100 Stars in Shadow Jan 19, 2017 $24.99N/A (N/A/75%)50,000 .. 100,0000%00:00 (00:00)
101 THE LAST BLADE Aug 31, 2016 $9.99N/A (N/A)20,000 .. 50,0000%00:00 (00:00)
102 VERSUS SQUAD Oct 26, 2016 $7.99N/A (N/A)100,000 .. 200,0000%00:00 (00:00)
103 ORCS May 20, 2016 $1.99N/A (N/A)20,000 .. 50,0000%00:00 (00:00)
104 Eador. Imperium Jan 27, 2017 $19.99N/A (N/A)20,000 .. 50,0000%00:00 (00:00)
105 Rabbit Island Jul 13, 2016 $1.99N/A (N/A)0 .. 20,00033.33%01:50 (00:55)
106 Weird Hero Nov 18, 2016 $3.99N/A (N/A)0 .. 20,0000%00:00 (00:00)
107 Bot Vice Jul 11, 2016 $9.99N/A (N/A)100,000 .. 200,0000%00:00 (00:00)
108 Sentry Knight Tactics Oct 3, 2016 $4.99N/A (N/A)20,000 .. 50,0000%00:00 (00:00)
109 Graveyard Shift Oct 20, 2016 $1.99N/A (N/A)20,000 .. 50,0000%00:00 (00:00)
110 LUXIS Oct 26, 2016 $4.99N/A (N/A)0 .. 20,0000%00:00 (00:00)
111 Board Defenders Sep 6, 2016 $4.99N/A (N/A)0 .. 20,0000%00:00 (00:00)
112 Death's Hangover Jan 20, 2017 $4.99N/A (N/A)20,000 .. 50,0000%00:00 (00:00)
113 Twixel Nov 18, 2016 $1.99N/A (N/A)20,000 .. 50,0000%00:00 (00:00)
114 Lazerbait Oct 14, 2016 FreeN/A (N/A)20,000 .. 50,0000%00:00 (00:00)
115 Crewsaders Nov 17, 2016 $2.99N/A (N/A)20,000 .. 50,0000%00:00 (00:00)
116 Death Dojo Nov 8, 2016 FreeN/A (N/A)0 .. 20,0000%00:00 (00:00)
117 Cavern Escape Extremely Hard game!!! Feb 20, 2017 $0.49N/A (N/A)50,000 .. 100,0000%00:00 (00:00)
118 SPINGUN Nov 11, 2016 $1.99N/A (N/A)20,000 .. 50,0000%00:00 (00:00)
119 NightZ Feb 14, 2017 $0.99N/A (N/A)20,000 .. 50,0000%00:00 (00:00)
120 Leviathan Starblade Nov 1, 2016 $2.99N/A (N/A)20,000 .. 50,0000%00:00 (00:00)
121 ARK BOX Unlimited Nov 29, 2016 $4.99N/A (N/A)0 .. 20,0000%00:00 (00:00)
122 Mysterium: A Psychic Clue Game Jan 12, 2017 $6.99N/A (N/A)100,000 .. 200,0000%00:00 (00:00)
123 Final Core Jan 11, 2017 $0.99N/A (N/A)0 .. 20,0000%00:00 (00:00)
124 Police Quest: SWAT Dec 15, 2016 $5.99N/A (N/A)0 .. 20,0000%00:00 (00:00)
125 Leap Up no jutsu Dec 30, 2016 $0.99N/A (N/A)20,000 .. 50,0000%00:00 (00:00)
126 2 Ninjas 1 Cup Feb 3, 2017 $0.99N/A (N/A)20,000 .. 50,0000%00:00 (00:00)
127 Element TD Jan 20, 2017 $0.99N/A (N/A)0 .. 20,0000%00:00 (00:00)
128 Gunman Taco Truck Jan 28, 2017 $2.99N/A (N/A)20,000 .. 50,0000%00:00 (00:00)

Tags over time:

Access restricted.

This feature is only available to users with special access rights. Sorry.

If you want to proceed, you need to register or log in first and then back Steam Spy on Patreon. Look for Indie or Pro pledge.

Don't forget to use the same email as on Steam Spy!

If you've recently backed Steam Spy on Patreon, please note, that it might take around 15 minutes for your access rights to sync. In most cases you'll need to re-login on Steam Spy too.

Owners of this game also own:

Access restricted.

This feature is only available to users with special access rights. Sorry.

If you want to proceed, you need to register or log in first and then back Steam Spy on Patreon. Look for Indie or Pro pledge.

Don't forget to use the same email as on Steam Spy!

If you've recently backed Steam Spy on Patreon, please note, that it might take around 15 minutes for your access rights to sync. In most cases you'll need to re-login on Steam Spy too.

Playtime distribution:

Access restricted.

This feature is only available to users with special access rights. Sorry.

If you want to proceed, you need to register or log in first and then back Steam Spy on Patreon. Look for Indie or Pro pledge.

Don't forget to use the same email as on Steam Spy!

If you've recently backed Steam Spy on Patreon, please note, that it might take around 15 minutes for your access rights to sync. In most cases you'll need to re-login on Steam Spy too.

Playtime (2 weeks):

Access restricted.

This feature is only available to users with special access rights. Sorry.

If you want to proceed, you need to register or log in first and then back Steam Spy on Patreon. Look for Indie or Pro pledge.

Don't forget to use the same email as on Steam Spy!

If you've recently backed Steam Spy on Patreon, please note, that it might take around 15 minutes for your access rights to sync. In most cases you'll need to re-login on Steam Spy too.

User reviews:

Login required.

Please register or log in to see this information.